| time (UTC) | temp F | wind direction | speed MPH | gust MPH | rain 1hr in | rain 24hr in | rain mn in | humidity % | barometer mb |
| 20260906044037 | 66 | 102 | 1.0 | 4.0 | 0.00 | 0.00 | 0.00 | 62 | 1009.0 |
| 20260906043037 | 65 | 135 | 2.0 | 6.0 | 0.00 | 0.00 | 0.00 | 63 | 1008.5 |
| 20260906042037 | 65 | 23 | 5.0 | 5.0 | 0.00 | 0.00 | 0.00 | 64 | 1008.9 |
| 20260906041037 | 65 | 49 | 4.0 | 7.0 | 0.00 | 0.00 | 0.00 | 63 | 1008.4 |
| 20260906040037 | 65 | 62 | 4.0 | 5.0 | 0.00 | 0.00 | 0.00 | 63 | 1008.5 |
| 20260906035037 | 65 | 109 | 3.0 | 5.0 | 0.00 | 0.00 | 0.00 | 62 | 1008.0 |
| 20260906034037 | 65 | 72 | 3.0 | 4.0 | 0.00 | 0.00 | 0.00 | 61 | 1007.9 |
| 20260906033037 | 66 | 28 | 5.0 | 9.0 | 0.00 | 0.00 | 0.00 | 60 | 1007.9 |
| 20260906032037 | 66 | 52 | 2.0 | 7.0 | 0.00 | 0.00 | 0.00 | 60 | 1008.0 |
| 20260906031037 | 66 | 81 | 3.0 | 5.0 | 0.00 | 0.00 | 0.00 | 60 | 1007.7 |
| 20260906030037 | 67 | 64 | 4.0 | 6.0 | 0.00 | 0.00 | 0.00 | 60 | 1007.7 |
| 20260906025037 | 67 | 357 | 6.0 | 10.0 | 0.00 | 0.00 | 0.00 | 61 | 1007.5 |
| 20260906024037 | 67 | 50 | 3.0 | 9.0 | 0.00 | 0.00 | 0.00 | 61 | 1007.1 |
| 20260906023037 | 67 | 64 | 5.0 | 11.0 | 0.00 | 0.00 | 0.00 | 61 | 1007.1 |
| 20260906022037 | 68 | 41 | 4.0 | 6.0 | 0.00 | 0.00 | 0.00 | 60 | 1006.9 |
| 20260906021037 | 68 | 333 | 5.0 | 9.0 | 0.00 | 0.00 | 0.00 | 60 | 1006.7 |
| 20260906020037 | 68 | 84 | 5.0 | 8.0 | 0.00 | 0.00 | 0.00 | 60 | 1006.6 |
| 20260906015037 | 68 | 67 | 6.0 | 10.0 | 0.00 | 0.00 | 0.00 | 61 | 1006.4 |
| 20260906014037 | 69 | 55 | 3.0 | 6.0 | 0.00 | 0.00 | 0.00 | 63 | 1006.1 |
| 20260906013037 | 69 | 82 | 3.0 | 6.0 | 0.00 | 0.00 | 0.00 | 64 | 1006.2 |
| 20260906012037 | 69 | 131 | 5.0 | 6.0 | 0.00 | 0.00 | 0.00 | 64 | 1006.0 |
| 20260906011037 | 69 | 34 | 6.0 | 10.0 | 0.00 | 0.00 | 0.00 | 64 | 1006.1 |
| 20260906010037 | 70 | 49 | 7.0 | 10.0 | 0.00 | 0.00 | 0.00 | 63 | 1005.9 |
| 20260906005037 | 70 | 56 | 4.0 | 8.0 | 0.00 | 0.00 | 0.00 | 62 | 1005.8 |
| 20260906004037 | 70 | 61 | 4.0 | 6.0 | 0.00 | 0.00 | 0.00 | 61 | 1005.4 |
| 20260906003037 | 70 | 45 | 8.0 | 10.0 | 0.00 | 0.00 | 0.00 | 61 | 1005.2 |
| 20260906002037 | 70 | 357 | 3.0 | 6.0 | 0.00 | 0.00 | 0.00 | 61 | 1005.3 |
| 20260906001037 | 71 | 57 | 6.0 | 8.0 | 0.00 | 0.00 | 0.00 | 61 | 1005.2 |
| 20260906000037 | 71 | 101 | 4.0 | 9.0 | 0.00 | 0.00 | 0.00 | 60 | 1004.9 |
| 20260905235037 | 71 | 110 | 4.0 | 7.0 | 0.00 | 0.00 | 0.00 | 60 | 1005.2 |
| 20260905234037 | 71 | 52 | 3.0 | 8.0 | 0.00 | 0.00 | 0.00 | 61 | 1005.2 |
| 20260905233037 | 71 | 80 | 3.0 | 9.0 | 0.00 | 0.00 | 0.00 | 61 | 1005.0 |
| 20260905232037 | 71 | 70 | 4.0 | 6.0 | 0.00 | 0.00 | 0.00 | 61 | 1005.1 |
| 20260905231037 | 71 | 108 | 6.0 | 6.0 | 0.00 | 0.00 | 0.00 | 61 | 1004.9 |
| 20260905230037 | 71 | 32 | 5.0 | 11.0 | 0.00 | 0.00 | 0.00 | 61 | 1005.0 |
| 20260905225037 | 72 | 73 | 2.0 | 6.0 | 0.00 | 0.00 | 0.00 | 61 | 1005.0 |
| 20260905224037 | 73 | 37 | 3.0 | 6.0 | 0.00 | 0.00 | 0.00 | 59 | 1004.6 |
| 20260905223037 | 71 | 29 | 4.0 | 7.0 | 0.00 | 0.00 | 0.00 | 62 | 1004.8 |
| 20260905222037 | 70 | 58 | 2.0 | 6.0 | 0.00 | 0.00 | 0.00 | 64 | 1004.6 |
| 20260905221037 | 70 | 113 | 4.0 | 6.0 | 0.00 | 0.00 | 0.00 | 66 | 1004.5 |
| 20260905220037 | 70 | 74 | 1.0 | 6.0 | 0.00 | 0.00 | 0.00 | 64 | 1004.6 |
| 20260905215037 | 70 | 105 | 1.0 | 2.0 | 0.00 | 0.00 | 0.00 | 66 | 1004.4 |
| 20260905214037 | 70 | 134 | 2.0 | 3.0 | 0.00 | 0.00 | 0.00 | 70 | 1004.2 |
| 20260905213037 | 69 | 70 | 1.0 | 2.0 | 0.00 | 0.00 | 0.00 | 74 | 1003.9 |
| 20260905212037 | 69 | 78 | 2.0 | 2.0 | 0.00 | 0.00 | 0.00 | 75 | 1003.9 |
| 20260905211037 | 69 | 72 | 1.0 | 2.0 | 0.00 | 0.00 | 0.00 | 72 | 1003.9 |
| 20260905210037 | 69 | 86 | 1.0 | 2.0 | 0.00 | 0.00 | 0.00 | 72 | 1003.8 |
| 20260905205037 | 70 | 81 | 1.0 | 2.0 | 0.00 | 0.00 | 0.00 | 72 | 1003.9 |
| 20260905204037 | 70 | 73 | 1.0 | 2.0 | 0.00 | 0.00 | 0.00 | 73 | 1003.9 |
| 20260905203037 | 70 | 58 | 1.0 | 2.0 | 0.00 | 0.00 | 0.00 | 74 | 1003.9 |
| 20260905202037 | 70 | 79 | 2.0 | 2.0 | 0.00 | 0.00 | 0.00 | 71 | 1004.0 |
| 20260905201037 | 71 | 79 | 0.0 | 1.0 | 0.00 | 0.00 | 0.00 | 73 | 1003.9 |
| 20260905200037 | 71 | 89 | 0.0 | 1.0 | 0.00 | 0.00 | 0.00 | 72 | 1003.7 |
| 20260905195037 | 71 | 74 | 1.0 | 1.0 | 0.00 | 0.00 | 0.00 | 73 | 1003.8 |
| 20260905194037 | 71 | 72 | 1.0 | 2.0 | 0.00 | 0.00 | 0.00 | 71 | 1003.7 |
| 20260905193037 | 72 | 93 | 0.0 | 2.0 | 0.00 | 0.00 | 0.00 | 69 | 1003.8 |
| 20260905192037 | 72 | 87 | 0.0 | 2.0 | 0.00 | 0.00 | 0.00 | 66 | 1003.8 |
| 20260905191037 | 73 | 67 | 1.0 | 2.0 | 0.00 | 0.00 | 0.00 | 66 | 1003.7 |
| 20260905190037 | 73 | 73 | 1.0 | 1.0 | 0.00 | 0.00 | 0.00 | 61 | 1003.4 |
| 20260905185037 | 74 | 75 | 0.0 | 2.0 | 0.00 | 0.00 | 0.00 | 60 | 1003.7 |
| 20260905184037 | 74 | 74 | 1.0 | 1.0 | 0.00 | 0.00 | 0.00 | 58 | 1003.8 |
| 20260905183037 | 75 | 49 | 0.0 | 1.0 | 0.00 | 0.00 | 0.00 | 58 | 1003.8 |
| 20260905182037 | 76 | 65 | 0.0 | 1.0 | 0.00 | 0.00 | 0.00 | 56 | 1003.6 |
| 20260905181037 | 76 | 75 | 0.0 | 0.0 | 0.00 | 0.00 | 0.00 | 52 | 1003.6 |
| 20260905180037 | 77 | 89 | 0.0 | 0.0 | 0.00 | 0.00 | 0.00 | 49 | 1003.7 |
| 20260905175037 | 78 | 37 | 0.0 | 0.0 | 0.00 | 0.00 | 0.00 | 48 | 1003.6 |
| 20260905174037 | 78 | 37 | 0.0 | 1.0 | 0.00 | 0.00 | 0.00 | 46 | 1003.7 |
| 20260905173037 | 78 | 89 | 0.0 | 0.0 | 0.00 | 0.00 | 0.00 | 47 | 1003.5 |
| 20260905172037 | 79 | 157 | 0.0 | 0.0 | 0.00 | 0.00 | 0.00 | 46 | 1003.6 |
| 20260905171037 | 80 | 44 | 0.0 | 0.0 | 0.00 | 0.00 | 0.00 | 44 | 1003.4 |
| 20260905170037 | 81 | 315 | 0.0 | 0.0 | 0.00 | 0.00 | 0.00 | 42 | 1003.4 |
| 20260905165037 | 82 | 62 | 0.0 | 0.0 | 0.00 | 0.00 | 0.00 | 40 | 1003.4 |
| 20260905164037 | 83 | 147 | 0.0 | 0.0 | 0.00 | 0.00 | 0.00 | 39 | 1003.4 |
| 20260905163037 | 84 | 44 | 0.0 | 0.0 | 0.00 | 0.00 | 0.00 | 37 | 1003.2 |
| 20260905162037 | 85 | 135 | 0.0 | 2.0 | 0.00 | 0.00 | 0.00 | 35 | 1003.3 |
| 20260905161037 | 86 | 257 | 2.0 | 4.0 | 0.00 | 0.00 | 0.00 | 34 | 1003.3 |
| 20260905160037 | 86 | 248 | 2.0 | 4.0 | 0.00 | 0.00 | 0.00 | 34 | 1003.3 |
| 20260905155037 | 87 | 253 | 3.0 | 3.0 | 0.00 | 0.00 | 0.00 | 33 | 1003.4 |
| 20260905154037 | 87 | 253 | 3.0 | 5.0 | 0.00 | 0.00 | 0.00 | 33 | 1003.2 |
| 20260905153037 | 88 | 251 | 2.0 | 4.0 | 0.00 | 0.00 | 0.00 | 33 | 1003.3 |
| 20260905152037 | 88 | 252 | 3.0 | 4.0 | 0.00 | 0.00 | 0.00 | 33 | 1003.5 |
| 20260905151037 | 89 | 258 | 2.0 | 4.0 | 0.00 | 0.00 | 0.00 | 32 | 1003.6 |
| 20260905150037 | 89 | 256 | 2.0 | 4.0 | 0.00 | 0.00 | 0.00 | 31 | 1003.6 |
| 20260905145037 | 90 | 259 | 3.0 | 5.0 | 0.00 | 0.00 | 0.00 | 32 | 1003.9 |
| 20260905144037 | 90 | 240 | 3.0 | 5.0 | 0.00 | 0.00 | 0.00 | 32 | 1003.7 |
| 20260905143037 | 91 | 257 | 3.0 | 4.0 | 0.00 | 0.00 | 0.00 | 30 | 1003.8 |
| 20260905142037 | 92 | 299 | 3.0 | 5.0 | 0.00 | 0.00 | 0.00 | 30 | 1003.7 |
| 20260905141037 | 91 | 259 | 3.0 | 5.0 | 0.00 | 0.00 | 0.00 | 32 | 1003.9 |
| 20260905140037 | 91 | 275 | 2.0 | 4.0 | 0.00 | 0.00 | 0.00 | 32 | 1003.8 |
| 20260905135037 | 91 | 276 | 2.0 | 4.0 | 0.00 | 0.00 | 0.00 | 31 | 1004.0 |
| 20260905134037 | 91 | 269 | 2.0 | 6.0 | 0.00 | 0.00 | 0.00 | 32 | 1004.0 |
| 20260905133037 | 91 | 232 | 2.0 | 6.0 | 0.00 | 0.00 | 0.00 | 32 | 1004.0 |
| 20260905132037 | 92 | 274 | 3.0 | 4.0 | 0.00 | 0.00 | 0.00 | 33 | 1003.7 |
| 20260905131037 | 93 | 236 | 4.0 | 7.0 | 0.00 | 0.00 | 0.00 | 30 | 1004.3 |
| 20260905130037 | 93 | 261 | 4.0 | 4.0 | 0.00 | 0.00 | 0.00 | 31 | 1004.5 |
| 20260905125037 | 93 | 246 | 2.0 | 5.0 | 0.00 | 0.00 | 0.00 | 30 | 1004.3 |
| 20260905124037 | 93 | 266 | 4.0 | 6.0 | 0.00 | 0.00 | 0.00 | 31 | 1004.4 |
| 20260905123037 | 93 | 256 | 4.0 | 5.0 | 0.00 | 0.00 | 0.00 | 30 | 1004.5 |
| 20260905122037 | 93 | 278 | 4.0 | 4.0 | 0.00 | 0.00 | 0.00 | 32 | 1004.9 |
| 20260905121037 | 92 | 242 | 5.0 | 6.0 | 0.00 | 0.00 | 0.00 | 31 | 1004.9 |
| 20260905120037 | 92 | 249 | 4.0 | 4.0 | 0.00 | 0.00 | 0.00 | 31 | 1005.2 |
| 20260905115037 | 93 | 251 | 3.0 | 5.0 | 0.00 | 0.00 | 0.00 | 31 | 1005.3 |
| 20260905114037 | 92 | 243 | 4.0 | 5.0 | 0.00 | 0.00 | 0.00 | 31 | 1005.3 |
| 20260905113037 | 92 | 243 | 3.0 | 5.0 | 0.00 | 0.00 | 0.00 | 32 | 1005.4 |
| 20260905112037 | 92 | 289 | 2.0 | 5.0 | 0.00 | 0.00 | 0.00 | 32 | 1005.5 |
| 20260905111037 | 92 | 281 | 3.0 | 7.0 | 0.00 | 0.00 | 0.00 | 31 | 1005.5 |
| 20260905110037 | 92 | 269 | 3.0 | 5.0 | 0.00 | 0.00 | 0.00 | 32 | 1005.6 |
| 20260905105037 | 92 | 257 | 4.0 | 6.0 | 0.00 | 0.00 | 0.00 | 32 | 1005.6 |
| 20260905104037 | 92 | 264 | 4.0 | 7.0 | 0.00 | 0.00 | 0.00 | 32 | 1005.5 |
| 20260905103037 | 91 | 259 | 3.0 | 5.0 | 0.00 | 0.00 | 0.00 | 32 | 1005.7 |
| 20260905102037 | 90 | 264 | 3.0 | 5.0 | 0.00 | 0.00 | 0.00 | 33 | 1005.7 |
| 20260905101037 | 91 | 233 | 6.0 | 9.0 | 0.00 | 0.00 | 0.00 | 33 | 1005.9 |
| 20260905100037 | 90 | 236 | 6.0 | 6.0 | 0.00 | 0.00 | 0.00 | 34 | 1006.0 |
| 20260905095037 | 90 | 259 | 5.0 | 6.0 | 0.00 | 0.00 | 0.00 | 33 | 1006.0 |
| 20260905094037 | 89 | 231 | 6.0 | 6.0 | 0.00 | 0.00 | 0.00 | 35 | 1006.0 |
| 20260905093037 | 89 | 207 | 1.0 | 12.0 | 0.00 | 0.00 | 0.00 | 34 | 1006.0 |
| 20260905092037 | 89 | 298 | 2.0 | 6.0 | 0.00 | 0.00 | 0.00 | 35 | 1006.0 |
| 20260905091037 | 87 | 287 | 4.0 | 4.0 | 0.00 | 0.00 | 0.00 | 37 | 1006.0 |
| 20260905090037 | 87 | 229 | 5.0 | 13.0 | 0.00 | 0.00 | 0.00 | 35 | 1006.3 |
| 20260905085037 | 86 | 251 | 4.0 | 4.0 | 0.00 | 0.00 | 0.00 | 40 | 1006.2 |
| 20260905084037 | 85 | 242 | 3.0 | 6.0 | 0.00 | 0.00 | 0.00 | 41 | 1006.3 |
| 20260905083037 | 83 | 255 | 3.0 | 4.0 | 0.00 | 0.00 | 0.00 | 42 | 1006.4 |
| 20260905082037 | 82 | 261 | 6.0 | 10.0 | 0.00 | 0.00 | 0.00 | 45 | 1006.5 |
| 20260905081037 | 80 | 312 | 2.0 | 4.0 | 0.00 | 0.00 | 0.00 | 48 | 1006.7 |
| 20260905080037 | 79 | 281 | 1.0 | 5.0 | 0.00 | 0.00 | 0.00 | 50 | 1006.7 |
| 20260905075037 | 77 | 287 | 1.0 | 3.0 | 0.00 | 0.00 | 0.00 | 51 | 1006.5 |
| 20260905074037 | 77 | 307 | 3.0 | 5.0 | 0.00 | 0.00 | 0.00 | 51 | 1006.7 |
| 20260905073037 | 76 | 252 | 3.0 | 5.0 | 0.00 | 0.00 | 0.00 | 51 | 1006.8 |
| 20260905072037 | 75 | 200 | 2.0 | 3.0 | 0.00 | 0.00 | 0.00 | 55 | 1006.6 |
| 20260905071037 | 74 | 302 | 1.0 | 3.0 | 0.00 | 0.00 | 0.00 | 57 | 1006.5 |
| 20260905070037 | 73 | 187 | 3.0 | 4.0 | 0.00 | 0.00 | 0.00 | 59 | 1006.7 |
| 20260905065037 | 72 | 271 | 2.0 | 3.0 | 0.00 | 0.00 | 0.00 | 61 | 1006.4 |
| 20260905064037 | 71 | 217 | 2.0 | 4.0 | 0.00 | 0.00 | 0.00 | 62 | 1006.7 |
| 20260905063037 | 71 | 207 | 2.0 | 4.0 | 0.00 | 0.00 | 0.00 | 65 | 1006.7 |
| 20260905062037 | 70 | 251 | 0.0 | 4.0 | 0.00 | 0.00 | 0.00 | 66 | 1006.5 |
| 20260905061037 | 69 | 114 | 2.0 | 5.0 | 0.00 | 0.00 | 0.00 | 67 | 1006.6 |
| 20260905060037 | 69 | 141 | 2.0 | 3.0 | 0.00 | 0.00 | 0.00 | 69 | 1006.1 |
| 20260905055037 | 68 | 247 | 2.0 | 4.0 | 0.00 | 0.00 | 0.00 | 71 | 1006.1 |
| 20260905054037 | 68 | 211 | 2.0 | 4.0 | 0.00 | 0.00 | 0.00 | 70 | 1006.2 |
| 20260905053037 | 68 | 135 | 1.0 | 3.0 | 0.00 | 0.00 | 0.00 | 69 | 1006.2 |
| 20260905052037 | 68 | 230 | 3.0 | 5.0 | 0.00 | 0.00 | 0.00 | 71 | 1006.3 |
| 20260905051037 | 67 | 183 | 2.0 | 2.0 | 0.00 | 0.00 | 0.00 | 72 | 1006.5 |
| 20260905050037 | 67 | 227 | 0.0 | 2.0 | 0.00 | 0.00 | 0.00 | 73 | 1006.2 |
| 20260905045037 | 65 | 204 | 1.0 | 3.0 | 0.00 | 0.00 | 0.00 | 77 | 1006.3 |